sensor_id;sensor_type;location;lat;lon;timestamp;temperature;humidity
20284;DHT22;10301;50.832;4.080;2023-08-07T00:00:45;12.60;99.90
20284;DHT22;10301;50.832;4.080;2023-08-07T00:03:11;12.60;99.90
20284;DHT22;10301;50.832;4.080;2023-08-07T00:05:37;12.50;99.90
20284;DHT22;10301;50.832;4.080;2023-08-07T00:08:02;12.60;99.90
20284;DHT22;10301;50.832;4.080;2023-08-07T00:10:28;12.60;99.90
20284;DHT22;10301;50.832;4.080;2023-08-07T00:12:54;12.60;99.90
20284;DHT22;10301;50.832;4.080;2023-08-07T00:15:19;12.40;99.90
20284;DHT22;10301;50.832;4.080;2023-08-07T00:17:45;12.40;99.90
20284;DHT22;10301;50.832;4.080;2023-08-07T00:20:11;12.30;99.90
20284;DHT22;10301;50.832;4.080;2023-08-07T00:22:37;12.40;99.90
20284;DHT22;10301;50.832;4.080;2023-08-07T00:25:02;12.60;99.90
20284;DHT22;10301;50.832;4.080;2023-08-07T00:27:28;12.70;99.90
20284;DHT22;10301;50.832;4.080;2023-08-07T00:29:54;12.60;99.90
20284;DHT22;10301;50.832;4.080;2023-08-07T00:32:20;12.60;99.90
20284;DHT22;10301;50.832;4.080;2023-08-07T00:34:46;12.50;99.90
20284;DHT22;10301;50.832;4.080;2023-08-07T00:37:12;12.50;99.90
20284;DHT22;10301;50.832;4.080;2023-08-07T00:39:37;12.40;99.90
20284;DHT22;10301;50.832;4.080;2023-08-07T00:42:03;12.40;99.90
20284;DHT22;10301;50.832;4.080;2023-08-07T00:44:29;12.50;99.90
20284;DHT22;10301;50.832;4.080;2023-08-07T00:46:54;12.50;99.90
20284;DHT22;10301;50.832;4.080;2023-08-07T00:49:20;12.50;99.90
20284;DHT22;10301;50.832;4.080;2023-08-07T00:51:47;12.40;99.90
20284;DHT22;10301;50.832;4.080;2023-08-07T00:54:15;12.40;99.90
20284;DHT22;10301;50.832;4.080;2023-08-07T00:56:42;12.40;99.90
20284;DHT22;10301;50.832;4.080;2023-08-07T00:59:08;12.40;99.90
20284;DHT22;10301;50.832;4.080;2023-08-07T01:01:35;12.30;99.90
20284;DHT22;10301;50.832;4.080;2023-08-07T01:04:01;12.10;99.90
20284;DHT22;10301;50.832;4.080;2023-08-07T01:06:27;12.20;99.90
20284;DHT22;10301;50.832;4.080;2023-08-07T01:08:53;12.30;99.90
20284;DHT22;10301;50.832;4.080;2023-08-07T01:16:58;12.30;99.90
20284;DHT22;10301;50.832;4.080;2023-08-07T01:19:28;12.10;99.90
20284;DHT22;10301;50.832;4.080;2023-08-07T01:24:36;12.00;99.90
20284;DHT22;10301;50.832;4.080;2023-08-07T01:35:31;11.90;99.90
20284;DHT22;10301;50.832;4.080;2023-08-07T01:37:58;12.00;99.90
20284;DHT22;10301;50.832;4.080;2023-08-07T01:40:25;12.00;99.90
20284;DHT22;10301;50.832;4.080;2023-08-07T01:42:52;12.10;99.90
20284;DHT22;10301;50.832;4.080;2023-08-07T01:45:26;12.10;99.90
20284;DHT22;10301;50.832;4.080;2023-08-07T01:47:52;12.00;99.90
20284;DHT22;10301;50.832;4.080;2023-08-07T01:50:22;11.90;99.90
20284;DHT22;10301;50.832;4.080;2023-08-07T01:52:47;11.80;99.90
20284;DHT22;10301;50.832;4.080;2023-08-07T01:55:14;11.80;99.90
20284;DHT22;10301;50.832;4.080;2023-08-07T01:57:40;11.90;99.90
20284;DHT22;10301;50.832;4.080;2023-08-07T02:00:06;12.10;99.90
20284;DHT22;10301;50.832;4.080;2023-08-07T02:02:34;12.10;99.90
20284;DHT22;10301;50.832;4.080;2023-08-07T02:04:59;12.00;99.90
20284;DHT22;10301;50.832;4.080;2023-08-07T02:07:25;12.00;99.90
20284;DHT22;10301;50.832;4.080;2023-08-07T02:09:51;12.00;99.90
20284;DHT22;10301;50.832;4.080;2023-08-07T02:12:16;12.00;99.90
20284;DHT22;10301;50.832;4.080;2023-08-07T02:14:42;12.00;99.90
20284;DHT22;10301;50.832;4.080;2023-08-07T02:17:08;12.10;99.90
20284;DHT22;10301;50.832;4.080;2023-08-07T02:19:33;12.00;99.90
20284;DHT22;10301;50.832;4.080;2023-08-07T02:21:59;12.00;99.90
20284;DHT22;10301;50.832;4.080;2023-08-07T02:24:25;12.00;99.90
20284;DHT22;10301;50.832;4.080;2023-08-07T02:26:50;12.00;99.90
20284;DHT22;10301;50.832;4.080;2023-08-07T02:29:16;12.00;99.90
20284;DHT22;10301;50.832;4.080;2023-08-07T02:31:42;12.00;99.90
20284;DHT22;10301;50.832;4.080;2023-08-07T02:34:07;11.80;99.90
20284;DHT22;10301;50.832;4.080;2023-08-07T02:36:33;11.90;99.90
20284;DHT22;10301;50.832;4.080;2023-08-07T02:38:59;12.00;99.90
20284;DHT22;10301;50.832;4.080;2023-08-07T02:41:24;11.90;99.90
20284;DHT22;10301;50.832;4.080;2023-08-07T02:43:50;12.00;99.90
20284;DHT22;10301;50.832;4.080;2023-08-07T02:46:15;12.10;99.90
20284;DHT22;10301;50.832;4.080;2023-08-07T02:48:43;12.30;99.90
20284;DHT22;10301;50.832;4.080;2023-08-07T02:51:09;12.20;99.90
20284;DHT22;10301;50.832;4.080;2023-08-07T02:53:35;12.20;99.90
20284;DHT22;10301;50.832;4.080;2023-08-07T02:56:01;12.30;99.90
20284;DHT22;10301;50.832;4.080;2023-08-07T02:58:27;12.40;99.90
20284;DHT22;10301;50.832;4.080;2023-08-07T03:00:52;12.40;99.90
20284;DHT22;10301;50.832;4.080;2023-08-07T03:03:18;12.60;99.90
20284;DHT22;10301;50.832;4.080;2023-08-07T03:05:51;12.70;99.90
20284;DHT22;10301;50.832;4.080;2023-08-07T03:08:17;12.90;99.90
20284;DHT22;10301;50.832;4.080;2023-08-07T03:10:52;12.80;99.90
20284;DHT22;10301;50.832;4.080;2023-08-07T03:13:18;12.50;99.90
20284;DHT22;10301;50.832;4.080;2023-08-07T03:15:44;12.80;99.90
20284;DHT22;10301;50.832;4.080;2023-08-07T03:18:09;12.70;99.90
20284;DHT22;10301;50.832;4.080;2023-08-07T03:20:38;12.80;99.90
20284;DHT22;10301;50.832;4.080;2023-08-07T03:23:04;12.80;99.90
20284;DHT22;10301;50.832;4.080;2023-08-07T03:25:29;12.70;99.90
20284;DHT22;10301;50.832;4.080;2023-08-07T03:27:55;12.50;99.90
20284;DHT22;10301;50.832;4.080;2023-08-07T03:30:21;12.40;99.90
20284;DHT22;10301;50.832;4.080;2023-08-07T03:32:46;12.30;99.90
20284;DHT22;10301;50.832;4.080;2023-08-07T03:35:12;12.30;99.90
20284;DHT22;10301;50.832;4.080;2023-08-07T03:37:38;12.30;99.90
20284;DHT22;10301;50.832;4.080;2023-08-07T03:40:04;12.20;99.90
20284;DHT22;10301;50.832;4.080;2023-08-07T03:42:29;12.30;99.90
20284;DHT22;10301;50.832;4.080;2023-08-07T03:44:55;12.10;99.90
20284;DHT22;10301;50.832;4.080;2023-08-07T03:47:21;12.10;99.90
20284;DHT22;10301;50.832;4.080;2023-08-07T03:49:46;12.10;99.90
20284;DHT22;10301;50.832;4.080;2023-08-07T03:52:12;12.00;99.90
20284;DHT22;10301;50.832;4.080;2023-08-07T03:54:37;12.20;99.90
20284;DHT22;10301;50.832;4.080;2023-08-07T03:57:03;12.20;99.90
20284;DHT22;10301;50.832;4.080;2023-08-07T03:59:29;12.00;99.90
20284;DHT22;10301;50.832;4.080;2023-08-07T04:01:55;12.00;99.90
20284;DHT22;10301;50.832;4.080;2023-08-07T04:04:20;12.00;99.90
20284;DHT22;10301;50.832;4.080;2023-08-07T04:06:46;12.00;99.90
20284;DHT22;10301;50.832;4.080;2023-08-07T04:09:11;12.00;99.90
20284;DHT22;10301;50.832;4.080;2023-08-07T04:11:37;12.00;99.90
20284;DHT22;10301;50.832;4.080;2023-08-07T04:14:03;12.10;99.90
20284;DHT22;10301;50.832;4.080;2023-08-07T04:16:30;12.00;99.90
20284;DHT22;10301;50.832;4.080;2023-08-07T04:18:56;12.10;99.90
20284;DHT22;10301;50.832;4.080;2023-08-07T04:21:22;12.10;99.90
20284;DHT22;10301;50.832;4.080;2023-08-07T04:23:48;12.10;99.90
20284;DHT22;10301;50.832;4.080;2023-08-07T04:26:14;12.10;99.90
20284;DHT22;10301;50.832;4.080;2023-08-07T04:28:40;12.10;99.90
20284;DHT22;10301;50.832;4.080;2023-08-07T04:31:05;12.10;99.90
20284;DHT22;10301;50.832;4.080;2023-08-07T04:33:31;12.00;99.90
20284;DHT22;10301;50.832;4.080;2023-08-07T04:35:57;12.00;99.90
20284;DHT22;10301;50.832;4.080;2023-08-07T04:38:22;11.90;99.90
20284;DHT22;10301;50.832;4.080;2023-08-07T04:40:49;12.00;99.90
20284;DHT22;10301;50.832;4.080;2023-08-07T04:43:16;12.10;99.90
20284;DHT22;10301;50.832;4.080;2023-08-07T04:45:42;12.20;99.90
20284;DHT22;10301;50.832;4.080;2023-08-07T04:48:10;12.30;99.90
20284;DHT22;10301;50.832;4.080;2023-08-07T04:50:37;12.20;99.90
20284;DHT22;10301;50.832;4.080;2023-08-07T04:53:04;12.30;99.90
20284;DHT22;10301;50.832;4.080;2023-08-07T04:55:31;12.50;99.90
20284;DHT22;10301;50.832;4.080;2023-08-07T04:57:57;12.50;99.90
20284;DHT22;10301;50.832;4.080;2023-08-07T05:00:23;12.60;99.90
20284;DHT22;10301;50.832;4.080;2023-08-07T05:02:49;12.70;99.90
20284;DHT22;10301;50.832;4.080;2023-08-07T05:05:15;12.70;99.90
20284;DHT22;10301;50.832;4.080;2023-08-07T05:07:41;12.60;99.90
20284;DHT22;10301;50.832;4.080;2023-08-07T05:10:08;12.60;99.90
20284;DHT22;10301;50.832;4.080;2023-08-07T05:12:34;12.70;99.90
20284;DHT22;10301;50.832;4.080;2023-08-07T05:14:59;12.70;99.90
20284;DHT22;10301;50.832;4.080;2023-08-07T05:17:25;12.70;99.90
20284;DHT22;10301;50.832;4.080;2023-08-07T05:19:51;12.80;99.90
20284;DHT22;10301;50.832;4.080;2023-08-07T05:22:17;12.90;99.90
20284;DHT22;10301;50.832;4.080;2023-08-07T05:24:42;13.00;99.90
20284;DHT22;10301;50.832;4.080;2023-08-07T05:27:10;13.00;99.90
20284;DHT22;10301;50.832;4.080;2023-08-07T05:29:36;12.90;99.90
20284;DHT22;10301;50.832;4.080;2023-08-07T05:32:09;13.10;99.90
20284;DHT22;10301;50.832;4.080;2023-08-07T05:34:35;13.20;99.90
20284;DHT22;10301;50.832;4.080;2023-08-07T05:37:01;13.30;99.90
20284;DHT22;10301;50.832;4.080;2023-08-07T05:39:27;13.30;99.90
20284;DHT22;10301;50.832;4.080;2023-08-07T05:41:53;13.40;99.90
20284;DHT22;10301;50.832;4.080;2023-08-07T05:44:20;13.60;99.90
20284;DHT22;10301;50.832;4.080;2023-08-07T05:46:45;13.60;99.90
20284;DHT22;10301;50.832;4.080;2023-08-07T05:49:11;13.60;99.90
20284;DHT22;10301;50.832;4.080;2023-08-07T05:51:37;13.60;99.90
20284;DHT22;10301;50.832;4.080;2023-08-07T05:54:02;13.60;99.90
20284;DHT22;10301;50.832;4.080;2023-08-07T05:56:28;13.70;99.90
20284;DHT22;10301;50.832;4.080;2023-08-07T05:58:54;13.80;99.90
20284;DHT22;10301;50.832;4.080;2023-08-07T06:01:20;13.90;99.90
20284;DHT22;10301;50.832;4.080;2023-08-07T06:03:45;13.90;99.90
20284;DHT22;10301;50.832;4.080;2023-08-07T06:06:12;13.90;99.90
20284;DHT22;10301;50.832;4.080;2023-08-07T06:08:37;14.10;99.90
20284;DHT22;10301;50.832;4.080;2023-08-07T06:11:03;14.10;99.90
20284;DHT22;10301;50.832;4.080;2023-08-07T06:13:30;14.10;99.90
20284;DHT22;10301;50.832;4.080;2023-08-07T06:15:56;14.20;99.90
20284;DHT22;10301;50.832;4.080;2023-08-07T06:18:22;14.30;99.90
20284;DHT22;10301;50.832;4.080;2023-08-07T06:20:47;14.40;99.90
20284;DHT22;10301;50.832;4.080;2023-08-07T06:23:13;14.50;99.90
20284;DHT22;10301;50.832;4.080;2023-08-07T06:25:38;14.50;99.90
20284;DHT22;10301;50.832;4.080;2023-08-07T06:28:04;14.50;99.90
20284;DHT22;10301;50.832;4.080;2023-08-07T06:30:33;14.70;99.90
20284;DHT22;10301;50.832;4.080;2023-08-07T06:32:58;14.40;99.90
20284;DHT22;10301;50.832;4.080;2023-08-07T06:35:24;14.50;99.90
20284;DHT22;10301;50.832;4.080;2023-08-07T06:37:50;14.60;99.90
20284;DHT22;10301;50.832;4.080;2023-08-07T06:40:15;14.90;99.90
20284;DHT22;10301;50.832;4.080;2023-08-07T06:42:41;15.10;99.90
20284;DHT22;10301;50.832;4.080;2023-08-07T06:45:07;15.30;99.90
20284;DHT22;10301;50.832;4.080;2023-08-07T06:47:32;15.60;99.80
20284;DHT22;10301;50.832;4.080;2023-08-07T06:49:58;15.50;99.60
20284;DHT22;10301;50.832;4.080;2023-08-07T06:52:24;15.40;99.90
20284;DHT22;10301;50.832;4.080;2023-08-07T06:54:49;15.60;99.80
20284;DHT22;10301;50.832;4.080;2023-08-07T06:57:15;15.70;97.50
20284;DHT22;10301;50.832;4.080;2023-08-07T06:59:40;15.60;98.40
20284;DHT22;10301;50.832;4.080;2023-08-07T07:02:06;15.70;99.50
20284;DHT22;10301;50.832;4.080;2023-08-07T07:04:32;15.80;97.90
20284;DHT22;10301;50.832;4.080;2023-08-07T07:06:58;16.00;97.00
20284;DHT22;10301;50.832;4.080;2023-08-07T07:09:24;16.00;97.30
20284;DHT22;10301;50.832;4.080;2023-08-07T07:11:50;16.10;98.10
20284;DHT22;10301;50.832;4.080;2023-08-07T07:14:15;16.10;96.80
20284;DHT22;10301;50.832;4.080;2023-08-07T07:16:41;16.20;96.70
20284;DHT22;10301;50.832;4.080;2023-08-07T07:19:08;16.30;95.30
20284;DHT22;10301;50.832;4.080;2023-08-07T07:21:35;16.40;93.90
20284;DHT22;10301;50.832;4.080;2023-08-07T07:24:02;16.60;91.10
20284;DHT22;10301;50.832;4.080;2023-08-07T07:26:27;16.60;88.00
20284;DHT22;10301;50.832;4.080;2023-08-07T07:28:53;16.80;71.20
20284;DHT22;10301;50.832;4.080;2023-08-07T07:31:21;16.90;59.90
20284;DHT22;10301;50.832;4.080;2023-08-07T07:33:46;17.00;59.20
20284;DHT22;10301;50.832;4.080;2023-08-07T07:36:16;17.00;61.90
20284;DHT22;10301;50.832;4.080;2023-08-07T07:38:42;16.90;63.70
20284;DHT22;10301;50.832;4.080;2023-08-07T07:41:08;16.90;64.20
20284;DHT22;10301;50.832;4.080;2023-08-07T07:43:37;17.00;55.90
20284;DHT22;10301;50.832;4.080;2023-08-07T07:46:03;16.90;51.20
20284;DHT22;10301;50.832;4.080;2023-08-07T07:48:29;17.00;53.40
20284;DHT22;10301;50.832;4.080;2023-08-07T07:51:02;17.00;52.10
20284;DHT22;10301;50.832;4.080;2023-08-07T07:53:28;17.20;53.70
20284;DHT22;10301;50.832;4.080;2023-08-07T07:55:54;17.30;49.60
20284;DHT22;10301;50.832;4.080;2023-08-07T07:58:21;17.30;51.40
20284;DHT22;10301;50.832;4.080;2023-08-07T08:00:47;17.20;58.40
20284;DHT22;10301;50.832;4.080;2023-08-07T08:03:13;17.20;57.50
20284;DHT22;10301;50.832;4.080;2023-08-07T08:05:39;17.50;49.80
20284;DHT22;10301;50.832;4.080;2023-08-07T08:08:06;17.80;51.70
20284;DHT22;10301;50.832;4.080;2023-08-07T08:10:35;18.10;46.50
20284;DHT22;10301;50.832;4.080;2023-08-07T08:13:01;18.20;30.40
20284;DHT22;10301;50.832;4.080;2023-08-07T08:15:29;18.40;30.00
20284;DHT22;10301;50.832;4.080;2023-08-07T08:17:55;18.20;28.90
20284;DHT22;10301;50.832;4.080;2023-08-07T08:20:20;18.30;19.50
20284;DHT22;10301;50.832;4.080;2023-08-07T08:22:47;18.50;9.70
20284;DHT22;10301;50.832;4.080;2023-08-07T08:25:12;18.40;14.40
20284;DHT22;10301;50.832;4.080;2023-08-07T08:27:39;18.50;6.10
20284;DHT22;10301;50.832;4.080;2023-08-07T08:30:05;18.50;1.00
20284;DHT22;10301;50.832;4.080;2023-08-07T08:32:31;18.50;8.20
20284;DHT22;10301;50.832;4.080;2023-08-07T08:34:56;18.60;9.70
20284;DHT22;10301;50.832;4.080;2023-08-07T08:37:22;18.70;1.00
20284;DHT22;10301;50.832;4.080;2023-08-07T08:39:48;18.80;1.00
20284;DHT22;10301;50.832;4.080;2023-08-07T08:42:15;18.90;1.00
20284;DHT22;10301;50.832;4.080;2023-08-07T08:44:55;19.00;1.00
20284;DHT22;10301;50.832;4.080;2023-08-07T08:47:26;19.00;1.00
20284;DHT22;10301;50.832;4.080;2023-08-07T08:50:01;19.00;1.00
20284;DHT22;10301;50.832;4.080;2023-08-07T08:52:31;19.20;1.00
20284;DHT22;10301;50.832;4.080;2023-08-07T08:54:58;19.40;1.00
20284;DHT22;10301;50.832;4.080;2023-08-07T08:57:25;19.60;1.00
20284;DHT22;10301;50.832;4.080;2023-08-07T08:59:54;19.90;1.00
20284;DHT22;10301;50.832;4.080;2023-08-07T09:02:20;20.00;1.00
20284;DHT22;10301;50.832;4.080;2023-08-07T09:04:46;19.90;1.00
20284;DHT22;10301;50.832;4.080;2023-08-07T09:07:14;19.70;1.00
20284;DHT22;10301;50.832;4.080;2023-08-07T09:09:40;19.40;1.00
20284;DHT22;10301;50.832;4.080;2023-08-07T09:12:08;19.30;1.00
20284;DHT22;10301;50.832;4.080;2023-08-07T09:14:37;19.10;1.00
20284;DHT22;10301;50.832;4.080;2023-08-07T09:17:05;19.00;1.00
20284;DHT22;10301;50.832;4.080;2023-08-07T09:19:31;19.00;1.00
20284;DHT22;10301;50.832;4.080;2023-08-07T09:21:57;19.00;1.00
20284;DHT22;10301;50.832;4.080;2023-08-07T09:24:22;19.10;1.00
20284;DHT22;10301;50.832;4.080;2023-08-07T09:26:51;19.30;1.00
20284;DHT22;10301;50.832;4.080;2023-08-07T09:29:17;19.50;1.00
20284;DHT22;10301;50.832;4.080;2023-08-07T09:31:43;19.50;1.00
20284;DHT22;10301;50.832;4.080;2023-08-07T09:34:12;19.30;1.00
20284;DHT22;10301;50.832;4.080;2023-08-07T09:36:40;19.40;1.00
20284;DHT22;10301;50.832;4.080;2023-08-07T09:39:06;19.80;1.00
20284;DHT22;10301;50.832;4.080;2023-08-07T09:41:32;19.60;1.00
20284;DHT22;10301;50.832;4.080;2023-08-07T09:43:58;19.60;1.00
20284;DHT22;10301;50.832;4.080;2023-08-07T09:46:25;19.90;1.00
20284;DHT22;10301;50.832;4.080;2023-08-07T09:48:51;20.20;1.00
20284;DHT22;10301;50.832;4.080;2023-08-07T09:51:16;20.30;1.00
20284;DHT22;10301;50.832;4.080;2023-08-07T09:53:42;19.90;1.00
20284;DHT22;10301;50.832;4.080;2023-08-07T09:56:08;19.90;1.00
20284;DHT22;10301;50.832;4.080;2023-08-07T09:58:34;20.00;1.00
20284;DHT22;10301;50.832;4.080;2023-08-07T10:01:03;20.20;1.00
20284;DHT22;10301;50.832;4.080;2023-08-07T10:03:29;20.20;1.00
20284;DHT22;10301;50.832;4.080;2023-08-07T10:05:55;20.10;1.00
20284;DHT22;10301;50.832;4.080;2023-08-07T10:08:21;20.30;1.00
20284;DHT22;10301;50.832;4.080;2023-08-07T10:10:47;20.20;1.00
20284;DHT22;10301;50.832;4.080;2023-08-07T10:13:13;19.70;1.00
20284;DHT22;10301;50.832;4.080;2023-08-07T10:15:40;19.80;1.00
20284;DHT22;10301;50.832;4.080;2023-08-07T10:18:08;19.90;1.00
20284;DHT22;10301;50.832;4.080;2023-08-07T10:20:34;19.90;1.00
20284;DHT22;10301;50.832;4.080;2023-08-07T10:23:07;20.40;1.00
20284;DHT22;10301;50.832;4.080;2023-08-07T10:25:34;20.60;63.70
20284;DHT22;10301;50.832;4.080;2023-08-07T10:28:02;20.70;1.00
20284;DHT22;10301;50.832;4.080;2023-08-07T10:30:31;20.70;99.90
20284;DHT22;10301;50.832;4.080;2023-08-07T10:32:58;20.60;1.00
20284;DHT22;10301;50.832;4.080;2023-08-07T10:35:32;20.50;1.00
20284;DHT22;10301;50.832;4.080;2023-08-07T10:38:08;20.50;1.00
20284;DHT22;10301;50.832;4.080;2023-08-07T10:41:19;20.40;1.00
20284;DHT22;10301;50.832;4.080;2023-08-07T10:43:24;20.40;1.00
20284;DHT22;10301;50.832;4.080;2023-08-07T10:45:50;20.60;1.00
20284;DHT22;10301;50.832;4.080;2023-08-07T10:48:19;20.60;1.00
20284;DHT22;10301;50.832;4.080;2023-08-07T10:50:50;20.50;1.00
20284;DHT22;10301;50.832;4.080;2023-08-07T10:53:39;20.50;1.00
20284;DHT22;10301;50.832;4.080;2023-08-07T10:56:08;20.40;1.00
20284;DHT22;10301;50.832;4.080;2023-08-07T10:58:40;20.40;1.00
20284;DHT22;10301;50.832;4.080;2023-08-07T11:03:58;21.10;1.00
20284;DHT22;10301;50.832;4.080;2023-08-07T11:06:32;21.10;1.00
20284;DHT22;10301;50.832;4.080;2023-08-07T11:08:59;21.30;1.00
20284;DHT22;10301;50.832;4.080;2023-08-07T11:11:26;21.50;1.00
20284;DHT22;10301;50.832;4.080;2023-08-07T11:13:52;21.40;1.00
20284;DHT22;10301;50.832;4.080;2023-08-07T11:16:19;21.60;1.00
20284;DHT22;10301;50.832;4.080;2023-08-07T11:18:49;21.70;1.00
20284;DHT22;10301;50.832;4.080;2023-08-07T11:21:15;21.70;1.00
20284;DHT22;10301;50.832;4.080;2023-08-07T11:23:41;21.90;1.00
20284;DHT22;10301;50.832;4.080;2023-08-07T11:26:09;21.90;1.00
20284;DHT22;10301;50.832;4.080;2023-08-07T11:28:34;21.50;1.00
20284;DHT22;10301;50.832;4.080;2023-08-07T11:31:00;21.20;99.90
20284;DHT22;10301;50.832;4.080;2023-08-07T11:33:27;21.20;99.90
20284;DHT22;10301;50.832;4.080;2023-08-07T11:35:53;21.50;1.00
20284;DHT22;10301;50.832;4.080;2023-08-07T11:38:36;21.70;1.00
20284;DHT22;10301;50.832;4.080;2023-08-07T11:41:04;21.90;1.00
20284;DHT22;10301;50.832;4.080;2023-08-07T11:43:31;22.00;1.00
20284;DHT22;10301;50.832;4.080;2023-08-07T11:45:58;22.00;99.90
20284;DHT22;10301;50.832;4.080;2023-08-07T11:48:28;22.10;1.00
20284;DHT22;10301;50.832;4.080;2023-08-07T11:50:55;22.20;99.90
20284;DHT22;10301;50.832;4.080;2023-08-07T11:53:21;22.00;1.00
20284;DHT22;10301;50.832;4.080;2023-08-07T11:56:01;21.70;1.00
20284;DHT22;10301;50.832;4.080;2023-08-07T11:58:33;21.70;1.00
20284;DHT22;10301;50.832;4.080;2023-08-07T12:01:01;21.70;1.00
20284;DHT22;10301;50.832;4.080;2023-08-07T12:03:30;21.40;99.90
20284;DHT22;10301;50.832;4.080;2023-08-07T12:05:57;21.70;1.00
20284;DHT22;10301;50.832;4.080;2023-08-07T12:08:23;21.90;99.80
20284;DHT22;10301;50.832;4.080;2023-08-07T12:11:00;22.00;1.00
20284;DHT22;10301;50.832;4.080;2023-08-07T12:13:26;22.10;1.00
20284;DHT22;10301;50.832;4.080;2023-08-07T12:15:56;22.10;99.90
20284;DHT22;10301;50.832;4.080;2023-08-07T12:18:23;22.20;99.90
20284;DHT22;10301;50.832;4.080;2023-08-07T12:20:50;22.30;1.00
20284;DHT22;10301;50.832;4.080;2023-08-07T12:23:17;22.40;1.00
20284;DHT22;10301;50.832;4.080;2023-08-07T12:25:44;22.40;1.00
20284;DHT22;10301;50.832;4.080;2023-08-07T12:28:10;22.50;99.90
20284;DHT22;10301;50.832;4.080;2023-08-07T12:30:37;22.60;99.90
20284;DHT22;10301;50.832;4.080;2023-08-07T12:33:03;22.70;99.90
20284;DHT22;10301;50.832;4.080;2023-08-07T12:35:30;22.40;99.90
20284;DHT22;10301;50.832;4.080;2023-08-07T12:37:56;22.70;99.90
20284;DHT22;10301;50.832;4.080;2023-08-07T12:40:22;22.90;1.00
20284;DHT22;10301;50.832;4.080;2023-08-07T12:42:49;23.00;99.90
20284;DHT22;10301;50.832;4.080;2023-08-07T12:45:15;22.80;1.00
20284;DHT22;10301;50.832;4.080;2023-08-07T12:47:41;22.60;1.00
20284;DHT22;10301;50.832;4.080;2023-08-07T12:50:11;22.40;99.90
20284;DHT22;10301;50.832;4.080;2023-08-07T12:52:36;22.30;1.00
20284;DHT22;10301;50.832;4.080;2023-08-07T12:55:02;22.50;99.90
20284;DHT22;10301;50.832;4.080;2023-08-07T12:57:29;22.50;1.00
20284;DHT22;10301;50.832;4.080;2023-08-07T12:59:54;22.70;1.00
20284;DHT22;10301;50.832;4.080;2023-08-07T13:02:20;22.70;99.90
20284;DHT22;10301;50.832;4.080;2023-08-07T13:04:45;22.50;1.00
20284;DHT22;10301;50.832;4.080;2023-08-07T13:07:12;22.50;1.00
20284;DHT22;10301;50.832;4.080;2023-08-07T13:09:37;22.30;1.00
20284;DHT22;10301;50.832;4.080;2023-08-07T13:12:04;22.10;9.20
20284;DHT22;10301;50.832;4.080;2023-08-07T13:14:29;22.40;1.00
20284;DHT22;10301;50.832;4.080;2023-08-07T13:16:55;22.60;1.00
20284;DHT22;10301;50.832;4.080;2023-08-07T13:19:20;22.80;99.90
20284;DHT22;10301;50.832;4.080;2023-08-07T13:21:46;22.50;45.10
20284;DHT22;10301;50.832;4.080;2023-08-07T13:24:12;22.30;1.00
20284;DHT22;10301;50.832;4.080;2023-08-07T13:26:38;22.40;99.90
20284;DHT22;10301;50.832;4.080;2023-08-07T13:29:10;22.40;1.00
20284;DHT22;10301;50.832;4.080;2023-08-07T13:31:36;22.30;99.90
20284;DHT22;10301;50.832;4.080;2023-08-07T13:34:01;22.20;1.00
20284;DHT22;10301;50.832;4.080;2023-08-07T13:36:33;22.10;99.90
20284;DHT22;10301;50.832;4.080;2023-08-07T13:38:59;22.00;1.00
20284;DHT22;10301;50.832;4.080;2023-08-07T13:41:26;22.00;1.00
20284;DHT22;10301;50.832;4.080;2023-08-07T13:43:51;21.80;99.90
20284;DHT22;10301;50.832;4.080;2023-08-07T13:46:17;22.00;61.70
20284;DHT22;10301;50.832;4.080;2023-08-07T13:48:44;21.90;1.00
20284;DHT22;10301;50.832;4.080;2023-08-07T13:51:10;22.20;99.90
20284;DHT22;10301;50.832;4.080;2023-08-07T13:53:36;22.40;1.00
20284;DHT22;10301;50.832;4.080;2023-08-07T13:56:02;22.70;1.00
20284;DHT22;10301;50.832;4.080;2023-08-07T13:58:27;22.80;99.90
20284;DHT22;10301;50.832;4.080;2023-08-07T14:00:53;22.60;99.90
20284;DHT22;10301;50.832;4.080;2023-08-07T14:03:19;22.50;1.00
20284;DHT22;10301;50.832;4.080;2023-08-07T14:05:45;22.90;99.90
20284;DHT22;10301;50.832;4.080;2023-08-07T14:08:11;23.00;99.90
20284;DHT22;10301;50.832;4.080;2023-08-07T14:10:37;22.80;99.90
20284;DHT22;10301;50.832;4.080;2023-08-07T14:13:04;22.60;99.90
20284;DHT22;10301;50.832;4.080;2023-08-07T14:15:31;22.40;1.00
20284;DHT22;10301;50.832;4.080;2023-08-07T14:17:56;22.70;99.90
20284;DHT22;10301;50.832;4.080;2023-08-07T14:20:23;23.00;1.00
20284;DHT22;10301;50.832;4.080;2023-08-07T14:22:52;23.10;99.90
20284;DHT22;10301;50.832;4.080;2023-08-07T14:25:18;23.00;2.20
20284;DHT22;10301;50.832;4.080;2023-08-07T14:27:46;22.90;1.00
20284;DHT22;10301;50.832;4.080;2023-08-07T14:30:12;22.50;1.00
20284;DHT22;10301;50.832;4.080;2023-08-07T14:32:38;22.00;99.90
20284;DHT22;10301;50.832;4.080;2023-08-07T14:35:04;21.80;1.00
20284;DHT22;10301;50.832;4.080;2023-08-07T14:37:30;21.70;1.00
20284;DHT22;10301;50.832;4.080;2023-08-07T14:39:55;21.80;1.00
20284;DHT22;10301;50.832;4.080;2023-08-07T14:42:21;21.70;1.00
20284;DHT22;10301;50.832;4.080;2023-08-07T14:44:47;21.80;99.90
20284;DHT22;10301;50.832;4.080;2023-08-07T14:47:13;21.80;1.00
20284;DHT22;10301;50.832;4.080;2023-08-07T14:49:38;22.00;40.80
20284;DHT22;10301;50.832;4.080;2023-08-07T14:52:05;22.30;1.00
20284;DHT22;10301;50.832;4.080;2023-08-07T14:54:31;22.60;1.00
20284;DHT22;10301;50.832;4.080;2023-08-07T14:56:57;23.30;99.90
20284;DHT22;10301;50.832;4.080;2023-08-07T14:59:24;23.40;1.00
20284;DHT22;10301;50.832;4.080;2023-08-07T15:01:50;23.50;99.90
20284;DHT22;10301;50.832;4.080;2023-08-07T15:04:16;23.60;99.90
20284;DHT22;10301;50.832;4.080;2023-08-07T15:06:42;23.40;1.00
20284;DHT22;10301;50.832;4.080;2023-08-07T15:09:08;23.30;1.00
20284;DHT22;10301;50.832;4.080;2023-08-07T15:11:35;23.40;1.00
20284;DHT22;10301;50.832;4.080;2023-08-07T15:14:00;23.10;1.00
20284;DHT22;10301;50.832;4.080;2023-08-07T15:16:30;23.20;1.00
20284;DHT22;10301;50.832;4.080;2023-08-07T15:18:55;22.90;1.00
20284;DHT22;10301;50.832;4.080;2023-08-07T15:21:21;22.80;1.00
20284;DHT22;10301;50.832;4.080;2023-08-07T15:23:47;22.80;5.60
20284;DHT22;10301;50.832;4.080;2023-08-07T15:26:12;22.70;1.00
20284;DHT22;10301;50.832;4.080;2023-08-07T15:28:38;22.10;1.00
20284;DHT22;10301;50.832;4.080;2023-08-07T15:31:05;22.20;99.90
20284;DHT22;10301;50.832;4.080;2023-08-07T15:33:30;22.20;1.00
20284;DHT22;10301;50.832;4.080;2023-08-07T15:35:56;22.10;99.90
20284;DHT22;10301;50.832;4.080;2023-08-07T15:38:23;22.10;1.00
20284;DHT22;10301;50.832;4.080;2023-08-07T15:40:49;22.30;1.00
20284;DHT22;10301;50.832;4.080;2023-08-07T15:43:14;22.50;99.90
20284;DHT22;10301;50.832;4.080;2023-08-07T15:45:40;22.60;1.00
20284;DHT22;10301;50.832;4.080;2023-08-07T15:48:06;22.40;99.90
20284;DHT22;10301;50.832;4.080;2023-08-07T15:50:33;22.20;1.00
20284;DHT22;10301;50.832;4.080;2023-08-07T15:53:02;22.20;99.90